createdAt,value
2018-03-11T00:00:03.448Z,97564.34
2018-03-11T00:02:31.835Z,97562.45
2018-03-11T00:05:00.095Z,97558.64
2018-03-11T00:07:28.384Z,97553.16
2018-03-11T00:09:56.655Z,97549.13
2018-03-11T00:12:24.944Z,97551.16
2018-03-11T00:14:53.228Z,97558.95
2018-03-11T00:17:21.510Z,97557.59
2018-03-11T00:19:49.794Z,97551.70
2018-03-11T00:22:18.079Z,97545.41
2018-03-11T00:24:46.378Z,97554.52
2018-03-11T00:27:15.376Z,97554.30
2018-03-11T00:29:43.654Z,97545.11
2018-03-11T00:32:11.934Z,97546.55
2018-03-11T00:34:40.246Z,97540.31
2018-03-11T00:37:08.581Z,97538.86
2018-03-11T00:39:36.884Z,97538.54
2018-03-11T00:42:05.835Z,97545.28
2018-03-11T00:44:34.143Z,97533.41
2018-03-11T00:47:02.433Z,97536.34
2018-03-11T00:49:30.743Z,97537.56
2018-03-11T00:51:59.166Z,97532.23
2018-03-11T00:54:27.449Z,97527.39
2018-03-11T00:56:55.721Z,97524.56
2018-03-11T00:59:24.920Z,97521.78
2018-03-11T01:01:53.194Z,97517.92
2018-03-11T01:04:21.476Z,97509.63
2018-03-11T01:06:49.887Z,97505.71
2018-03-11T01:09:18.185Z,97497.11
2018-03-11T01:11:46.453Z,97481.94
2018-03-11T01:14:14.747Z,97485.82
2018-03-11T01:16:43.024Z,97480.89
2018-03-11T01:19:11.329Z,97479.35
2018-03-11T01:21:39.612Z,97477.91
2018-03-11T01:24:08.277Z,97467.57
2018-03-11T01:26:36.605Z,97457.69
2018-03-11T01:29:05.799Z,97453.64
2018-03-11T01:31:34.055Z,97446.70
2018-03-11T01:34:02.339Z,97434.88
2018-03-11T01:36:30.619Z,97437.14
2018-03-11T01:38:58.891Z,97433.86
2018-03-11T01:41:27.207Z,97430.16
2018-03-11T01:43:55.513Z,97432.72
2018-03-11T01:46:23.792Z,97425.84
2018-03-11T01:48:52.212Z,97395.83
2018-03-11T01:51:20.505Z,97418.77
2018-03-11T01:53:48.760Z,97399.12
2018-03-11T01:56:17.155Z,97389.49
2018-03-11T01:58:45.915Z,97385.78
2018-03-11T02:01:14.200Z,97374.20
2018-03-11T02:03:42.456Z,97371.03
2018-03-11T02:06:10.769Z,97374.28
2018-03-11T02:08:39.056Z,97361.05
2018-03-11T02:11:07.378Z,97359.29
2018-03-11T02:13:35.666Z,97356.44
2018-03-11T02:16:03.967Z,97354.02
2018-03-11T02:18:32.277Z,97345.22
2018-03-11T02:21:00.527Z,97343.30
2018-03-11T02:23:28.856Z,97342.02
2018-03-11T02:25:57.158Z,97347.33
2018-03-11T02:28:25.760Z,97339.61
2018-03-11T02:30:54.045Z,97331.34
2018-03-11T02:33:22.327Z,97327.30
2018-03-11T02:35:50.603Z,97316.04
2018-03-11T02:38:18.910Z,97312.91
2018-03-11T02:40:47.203Z,97308.86
2018-03-11T02:43:15.505Z,97310.80
2018-03-11T02:45:43.780Z,97306.34
2018-03-11T02:48:12.106Z,97303.39
2018-03-11T02:50:40.335Z,97304.44
2018-03-11T02:53:08.611Z,97295.42
2018-03-11T02:55:36.886Z,97289.89
2018-03-11T02:58:05.163Z,97289.41
2018-03-11T03:00:33.441Z,97290.45
2018-03-11T03:03:01.728Z,97288.96
2018-03-11T03:05:30.001Z,97287.53
2018-03-11T03:07:58.362Z,97285.77
2018-03-11T03:10:26.607Z,97282.11
2018-03-11T03:12:54.912Z,97280.41
2018-03-11T03:15:23.159Z,97277.73
2018-03-11T03:17:51.453Z,97289.22
2018-03-11T03:20:19.711Z,97276.22
2018-03-11T03:22:48.013Z,97280.03
2018-03-11T03:25:16.356Z,97277.91
2018-03-11T03:27:44.668Z,97278.86
2018-03-11T03:30:12.972Z,97276.08
2018-03-11T03:32:41.280Z,97275.69
2018-03-11T03:35:09.544Z,97274.50
2018-03-11T03:37:37.800Z,97279.36
2018-03-11T03:40:06.076Z,97277.48
2018-03-11T03:42:34.348Z,97288.85
2018-03-11T03:45:02.640Z,97273.16
2018-03-11T03:47:30.947Z,97272.14
2018-03-11T03:49:59.235Z,97268.30
2018-03-11T03:52:27.811Z,97264.27
2018-03-11T03:54:56.098Z,97252.41
2018-03-11T03:57:24.400Z,97259.76
2018-03-11T03:59:52.701Z,97253.77
2018-03-11T04:02:20.987Z,97252.23
2018-03-11T04:04:49.296Z,97260.77
2018-03-11T04:07:17.602Z,97258.03
2018-03-11T04:09:45.894Z,97258.50
2018-03-11T04:12:14.160Z,97247.64
2018-03-11T04:14:42.480Z,97248.11
2018-03-11T04:17:10.758Z,97248.14
2018-03-11T04:19:39.072Z,97238.36
2018-03-11T04:22:07.358Z,97234.27
2018-03-11T04:24:35.647Z,97231.70
2018-03-11T04:27:04.771Z,97225.50
2018-03-11T04:29:33.082Z,97216.59
2018-03-11T04:32:01.356Z,97218.28
2018-03-11T04:34:29.701Z,97209.92
2018-03-11T04:36:57.985Z,97216.79
2018-03-11T04:39:26.265Z,97202.27
2018-03-11T04:41:54.536Z,97204.48
2018-03-11T04:44:22.825Z,97199.89
2018-03-11T04:46:51.149Z,97197.13
2018-03-11T04:49:19.438Z,97200.23
2018-03-11T04:51:47.732Z,97195.92
2018-03-11T04:54:15.984Z,97195.99
2018-03-11T04:56:44.272Z,97197.73
2018-03-11T04:59:12.562Z,97191.78
2018-03-11T05:01:41.368Z,97192.36
2018-03-11T05:04:09.681Z,97202.05
2018-03-11T05:06:37.970Z,97194.53
2018-03-11T05:09:06.248Z,97193.78
2018-03-11T05:11:34.529Z,97188.86
2018-03-11T05:14:02.826Z,97196.95
2018-03-11T05:16:31.084Z,97182.66
2018-03-11T05:18:59.560Z,97181.98
2018-03-11T05:21:27.839Z,97161.53
2018-03-11T05:23:56.123Z,97149.52
2018-03-11T05:26:24.411Z,97144.77
2018-03-11T05:28:52.721Z,97140.75
2018-03-11T05:31:20.987Z,97139.36
2018-03-11T05:33:49.304Z,97139.80
2018-03-11T05:36:17.568Z,97134.19
2018-03-11T05:38:45.858Z,97120.98
2018-03-11T05:41:14.123Z,97116.57
2018-03-11T05:43:42.443Z,97115.55
2018-03-11T05:46:10.716Z,97114.30
2018-03-11T05:48:38.995Z,97110.23
2018-03-11T05:51:07.269Z,97114.14
2018-03-11T05:53:35.561Z,97108.20
2018-03-11T05:56:03.816Z,97110.05
2018-03-11T05:58:32.089Z,97119.20
2018-03-11T06:01:00.376Z,97115.20
2018-03-11T06:03:28.679Z,97126.89
2018-03-11T06:05:56.950Z,97115.11
2018-03-11T06:08:25.220Z,97090.70
2018-03-11T06:10:53.480Z,97078.66
2018-03-11T06:13:22.127Z,97082.05
2018-03-11T06:15:50.425Z,97080.81
2018-03-11T06:18:18.753Z,97077.38
2018-03-11T06:20:46.996Z,97079.52
2018-03-11T06:23:16.191Z,97073.17
2018-03-11T06:25:44.476Z,97066.63
2018-03-11T06:28:12.842Z,97038.25
2018-03-11T06:30:41.130Z,97068.34
2018-03-11T06:33:09.408Z,97061.86
2018-03-11T06:35:37.755Z,97052.92
2018-03-11T06:38:06.033Z,97054.62
2018-03-11T06:40:34.332Z,97046.84
2018-03-11T06:43:02.662Z,97048.09
2018-03-11T06:45:30.961Z,97054.09
2018-03-11T06:47:59.272Z,97049.47
2018-03-11T06:50:27.540Z,97041.39
2018-03-11T06:52:55.824Z,97052.95
2018-03-11T06:55:24.479Z,97060.48
2018-03-11T06:57:52.752Z,97064.36
2018-03-11T07:00:21.056Z,97077.80
2018-03-11T07:02:49.329Z,97092.41
2018-03-11T07:05:17.614Z,97107.10
2018-03-11T07:07:45.889Z,97116.28
2018-03-11T07:10:14.186Z,97128.98
2018-03-11T07:12:42.461Z,97132.58
2018-03-11T07:15:10.756Z,97146.69
2018-03-11T07:17:39.070Z,97157.27
2018-03-11T07:20:07.344Z,97173.14
2018-03-11T07:22:35.621Z,97195.38
2018-03-11T07:25:04.811Z,97210.25
2018-03-11T07:27:33.096Z,97216.40
2018-03-11T07:30:01.383Z,97231.26
2018-03-11T07:32:30.600Z,97220.20
2018-03-11T07:34:58.880Z,97205.73
2018-03-11T07:37:27.181Z,97200.33
2018-03-11T07:39:55.512Z,97216.98
2018-03-11T07:42:23.780Z,97223.31
2018-03-11T07:44:52.045Z,97220.21
2018-03-11T07:47:20.344Z,97231.16
2018-03-11T07:49:48.620Z,97222.14
2018-03-11T07:52:16.912Z,97214.41
2018-03-11T07:54:45.199Z,97215.99
2018-03-11T07:57:13.492Z,97208.92
2018-03-11T07:59:41.786Z,97203.39
2018-03-11T08:02:10.071Z,97198.74
2018-03-11T08:04:38.360Z,97200.20
2018-03-11T08:07:06.662Z,97199.99
2018-03-11T08:09:34.935Z,97214.47
2018-03-11T08:12:03.248Z,97197.27
2018-03-11T08:14:31.509Z,97182.94
2018-03-11T08:16:59.903Z,97184.59
2018-03-11T08:19:28.191Z,97185.44
2018-03-11T08:21:56.497Z,97189.94
2018-03-11T08:24:24.766Z,97179.73
2018-03-11T08:26:53.065Z,97172.48
2018-03-11T08:29:21.323Z,97168.02
2018-03-11T08:31:49.807Z,97166.14
2018-03-11T08:34:18.066Z,97167.63
2018-03-11T08:36:46.340Z,97172.19
2018-03-11T08:39:14.630Z,97169.00
2018-03-11T08:41:42.899Z,97177.03
2018-03-11T08:44:11.196Z,97187.62
2018-03-11T08:46:39.456Z,97192.63
2018-03-11T08:49:07.766Z,97197.98
2018-03-11T08:51:36.043Z,97193.61
2018-03-11T08:54:05.392Z,97193.59
2018-03-11T08:56:33.668Z,97200.79
2018-03-11T08:59:01.955Z,97196.53
2018-03-11T09:01:30.244Z,97198.56
2018-03-11T09:03:58.575Z,97193.39
2018-03-11T09:06:26.848Z,97189.80
2018-03-11T09:08:55.189Z,97183.33
2018-03-11T09:11:23.485Z,97184.62
2018-03-11T09:13:51.795Z,97192.92
2018-03-11T09:16:20.524Z,97196.77
2018-03-11T09:18:49.664Z,97189.91
2018-03-11T09:21:17.980Z,97190.11
2018-03-11T09:23:46.376Z,97182.44
2018-03-11T09:26:14.637Z,97191.09
2018-03-11T09:28:42.929Z,97189.09
2018-03-11T09:31:11.270Z,97183.58
2018-03-11T09:33:41.486Z,97173.41
2018-03-11T09:36:09.799Z,97171.32
2018-03-11T09:38:38.096Z,97170.80
2018-03-11T09:41:06.419Z,97179.86
2018-03-11T09:43:34.744Z,97187.35
2018-03-11T09:46:03.019Z,97189.08
2018-03-11T09:48:31.300Z,97198.73
2018-03-11T09:50:59.602Z,97187.61
2018-03-11T09:53:27.868Z,97197.20
2018-03-11T09:55:56.168Z,97198.67
2018-03-11T09:58:24.872Z,97203.92
2018-03-11T10:00:53.791Z,97190.98
2018-03-11T10:03:22.068Z,97196.41
2018-03-11T10:05:50.367Z,97192.23
2018-03-11T10:08:18.629Z,97195.52
2018-03-11T10:10:46.934Z,97195.33
2018-03-11T10:13:15.208Z,97200.03
2018-03-11T10:15:43.495Z,97200.06
2018-03-11T10:18:11.786Z,97193.58
2018-03-11T10:20:40.160Z,97196.00
2018-03-11T10:23:08.439Z,97199.13
2018-03-11T10:25:36.771Z,97202.27
2018-03-11T10:28:05.041Z,97193.46
2018-03-11T10:30:33.347Z,97187.64
2018-03-11T10:33:01.682Z,97179.03
2018-03-11T10:35:29.960Z,97182.25
2018-03-11T10:37:58.267Z,97180.08
2018-03-11T10:40:26.541Z,97177.43
2018-03-11T10:42:54.849Z,97165.28
2018-03-11T10:45:23.146Z,97167.03
2018-03-11T10:47:51.425Z,97170.77
2018-03-11T10:50:19.698Z,97161.58
2018-03-11T10:52:48.001Z,97159.71
2018-03-11T10:55:16.300Z,97160.91
2018-03-11T10:57:44.623Z,97165.01
2018-03-11T11:00:13.228Z,97154.34
2018-03-11T11:02:41.520Z,97153.28
2018-03-11T11:05:09.812Z,97149.36
2018-03-11T11:07:38.971Z,97147.83
2018-03-11T11:10:07.249Z,97144.09
2018-03-11T11:12:35.564Z,97137.50
2018-03-11T11:15:03.841Z,97102.83
2018-03-11T11:17:32.137Z,97120.41
2018-03-11T11:20:00.418Z,97112.73
2018-03-11T11:22:28.712Z,97117.28
2018-03-11T11:24:57.017Z,97113.22
2018-03-11T11:27:25.380Z,97107.06
2018-03-11T11:29:53.636Z,97103.33
2018-03-11T11:32:21.938Z,97107.39
2018-03-11T11:34:50.198Z,97095.44
2018-03-11T11:37:18.521Z,97095.47
2018-03-11T11:39:46.808Z,97089.96
2018-03-11T11:42:15.079Z,97085.45
2018-03-11T11:44:43.383Z,97079.55
2018-03-11T11:47:11.680Z,97079.98
2018-03-11T11:49:40.050Z,97080.88
2018-03-11T11:52:08.367Z,97077.50
2018-03-11T11:54:36.695Z,97078.60
2018-03-11T11:57:05.763Z,97077.84
2018-03-11T11:59:34.096Z,97074.17
2018-03-11T12:02:02.356Z,97065.23
2018-03-11T12:04:30.724Z,97068.53
2018-03-11T12:06:59.016Z,97062.16
2018-03-11T12:09:27.312Z,97048.76
2018-03-11T12:11:55.601Z,97052.44
2018-03-11T12:14:23.936Z,97052.05
2018-03-11T12:16:52.331Z,97052.30
2018-03-11T12:19:20.698Z,97053.92
2018-03-11T12:21:48.969Z,97048.72
2018-03-11T12:24:17.257Z,97038.34
2018-03-11T12:26:45.543Z,97034.59
2018-03-11T12:29:13.944Z,97044.37
2018-03-11T12:31:42.263Z,97036.52
2018-03-11T12:34:10.586Z,97039.36
2018-03-11T12:36:38.887Z,97032.03
2018-03-11T12:39:07.179Z,97025.73
2018-03-11T12:41:35.560Z,97011.02
2018-03-11T12:44:05.068Z,97007.88
2018-03-11T12:46:33.388Z,97002.02
2018-03-11T12:49:01.646Z,97003.12
2018-03-11T12:51:30.572Z,96995.38
2018-03-11T12:53:58.828Z,96992.34
2018-03-11T12:56:27.155Z,96979.23
2018-03-11T12:58:55.399Z,96984.72
2018-03-11T13:01:23.871Z,96980.25
2018-03-11T13:03:52.140Z,96973.38
2018-03-11T13:06:20.440Z,96963.98
2018-03-11T13:08:48.757Z,96961.53
2018-03-11T13:11:17.083Z,96968.22
2018-03-11T13:13:45.360Z,96966.46
2018-03-11T13:16:13.661Z,96966.57
2018-03-11T13:18:41.923Z,96961.92
2018-03-11T13:21:11.051Z,96962.73
2018-03-11T13:23:40.567Z,96956.12
2018-03-11T13:26:08.844Z,96971.94
2018-03-11T13:28:46.799Z,96971.77
2018-03-11T13:31:15.558Z,96972.95
2018-03-11T13:33:55.635Z,96921.00
2018-03-11T13:36:24.009Z,96970.09
2018-03-11T13:39:04.015Z,96972.38
2018-03-11T13:41:32.339Z,96972.03
2018-03-11T13:44:01.406Z,96970.01
2018-03-11T13:46:41.397Z,96963.72
2018-03-11T13:49:09.683Z,96960.98
2018-03-11T13:51:49.646Z,96948.62
2018-03-11T13:54:17.918Z,96956.02
2018-03-11T13:56:46.187Z,96945.73
2018-03-11T13:59:14.504Z,96940.90
2018-03-11T14:01:42.778Z,96936.62
2018-03-11T14:04:11.092Z,96932.92
2018-03-11T14:06:39.400Z,96918.39
2018-03-11T14:09:07.677Z,96911.67
2018-03-11T14:11:35.940Z,96924.16
2018-03-11T14:14:04.250Z,96930.14
2018-03-11T14:16:32.619Z,96934.34
2018-03-11T14:19:00.935Z,96934.34
2018-03-11T14:21:29.220Z,96937.17
2018-03-11T14:23:58.248Z,96933.36
2018-03-11T14:26:26.892Z,96934.59
2018-03-11T14:28:55.189Z,96931.25
2018-03-11T14:31:23.472Z,96929.83
2018-03-11T14:33:51.775Z,96936.19
2018-03-11T14:36:20.679Z,96934.55
2018-03-11T14:38:48.960Z,96938.14
2018-03-11T14:41:17.253Z,96930.09
2018-03-11T14:43:45.511Z,96925.09
2018-03-11T14:46:13.878Z,96921.88
2018-03-11T14:48:42.690Z,96922.23
2018-03-11T14:51:16.904Z,96916.08
2018-03-11T14:53:45.177Z,96918.63
2018-03-11T14:56:13.464Z,96911.06
2018-03-11T14:58:41.833Z,96910.91
2018-03-11T15:01:10.174Z,96915.92
2018-03-11T15:03:38.444Z,96915.00
2018-03-11T15:06:06.792Z,96904.24
2018-03-11T15:08:35.112Z,96898.70
2018-03-11T15:11:03.402Z,96942.20
2018-03-11T15:13:31.715Z,96938.80
2018-03-11T15:15:59.999Z,96945.92
2018-03-11T15:18:28.300Z,96955.03
2018-03-11T15:20:56.584Z,96953.66
2018-03-11T15:23:24.908Z,96959.77
2018-03-11T15:25:53.184Z,96960.98
2018-03-11T15:28:25.167Z,96967.67
2018-03-11T15:30:53.536Z,96969.05
2018-03-11T15:33:21.833Z,96964.16
2018-03-11T15:35:50.206Z,96958.01
2018-03-11T15:38:18.502Z,96952.25
2018-03-11T15:40:46.869Z,96943.73
2018-03-11T15:43:15.136Z,96941.23
2018-03-11T15:45:43.415Z,96943.45
2018-03-11T15:48:11.809Z,96937.12
2018-03-11T15:50:40.148Z,96940.91
2018-03-11T15:53:08.471Z,96941.73
2018-03-11T15:55:36.727Z,96946.47
2018-03-11T15:58:05.521Z,96922.77
2018-03-11T16:00:33.787Z,96937.16
2018-03-11T16:03:02.080Z,96923.94
2018-03-11T16:05:30.345Z,96923.78
2018-03-11T16:07:58.638Z,96920.30
2018-03-11T16:10:26.934Z,96915.92
2018-03-11T16:12:55.245Z,96918.14
2018-03-11T16:15:23.504Z,96917.25
2018-03-11T16:17:52.455Z,96912.28
2018-03-11T16:20:20.853Z,96916.00
2018-03-11T16:22:49.183Z,96915.64
2018-03-11T16:25:17.462Z,96897.41
2018-03-11T16:27:45.791Z,96904.57
2018-03-11T16:30:14.107Z,96906.25
2018-03-11T16:32:43.752Z,96905.28
2018-03-11T16:35:12.068Z,96900.00
2018-03-11T16:37:40.389Z,96904.54
2018-03-11T16:40:09.181Z,96903.47
2018-03-11T16:42:37.469Z,96901.56
2018-03-11T16:45:05.785Z,96889.83
2018-03-11T16:47:34.085Z,96896.12
2018-03-11T16:50:02.377Z,96902.77
2018-03-11T16:52:30.665Z,96897.30
2018-03-11T16:55:00.049Z,96902.81
2018-03-11T16:57:28.365Z,96899.22
2018-03-11T16:59:56.684Z,96901.66
2018-03-11T17:02:25.583Z,96898.66
2018-03-11T17:04:53.894Z,96902.17
2018-03-11T17:07:22.204Z,96889.44
2018-03-11T17:09:50.598Z,96893.22
2018-03-11T17:12:18.920Z,96892.42
2018-03-11T17:14:47.209Z,96890.70
2018-03-11T17:17:15.492Z,96890.23
2018-03-11T17:19:43.859Z,96879.73
2018-03-11T17:22:13.060Z,96891.14
2018-03-11T17:24:41.335Z,96889.72
2018-03-11T17:27:09.649Z,96889.02
2018-03-11T17:29:38.902Z,96892.23
2018-03-11T17:32:07.198Z,96887.99
2018-03-11T17:34:35.536Z,96889.04
2018-03-11T17:37:03.862Z,96895.17
2018-03-11T17:39:32.623Z,96897.23
2018-03-11T17:42:00.930Z,96894.02
2018-03-11T17:44:29.211Z,96897.88
2018-03-11T17:46:57.582Z,96896.16
2018-03-11T17:49:25.848Z,96902.48
2018-03-11T17:51:54.158Z,96911.34
2018-03-11T17:54:22.503Z,96914.22
2018-03-11T17:56:50.844Z,96914.67
2018-03-11T17:59:19.155Z,96907.59
2018-03-11T18:01:47.471Z,96865.16
2018-03-11T18:04:15.799Z,96913.33
2018-03-11T18:06:44.097Z,96906.91
2018-03-11T18:09:12.485Z,96907.13
2018-03-11T18:11:40.963Z,96898.37
2018-03-11T18:14:09.446Z,96906.45
2018-03-11T18:16:37.808Z,96908.47
2018-03-11T18:19:06.322Z,96906.81
2018-03-11T18:21:34.614Z,96908.03
2018-03-11T18:24:03.047Z,96903.48
2018-03-11T18:26:31.343Z,96901.00
2018-03-11T18:28:59.632Z,96895.59
2018-03-11T18:31:27.914Z,96896.64
2018-03-11T18:33:56.224Z,96895.53
2018-03-11T18:36:24.513Z,96898.97
2018-03-11T18:38:56.681Z,96899.84
2018-03-11T18:44:21.845Z,96903.11
2018-03-11T18:46:50.151Z,96896.16
2018-03-11T18:49:18.474Z,96893.81
2018-03-11T18:51:47.097Z,96901.84
2018-03-11T18:54:15.397Z,96894.83
2018-03-11T18:56:43.791Z,96896.70
2018-03-11T18:59:12.108Z,96900.23
2018-03-11T19:01:40.964Z,96898.95
2018-03-11T19:04:10.075Z,96892.95
2018-03-11T19:06:38.450Z,96895.16
2018-03-11T19:09:06.747Z,96890.63
2018-03-11T19:11:35.033Z,96884.83
2018-03-11T19:14:03.319Z,96881.55
2018-03-11T19:16:31.756Z,96888.58
2018-03-11T19:19:00.112Z,96882.96
2018-03-11T19:21:28.465Z,96882.80
2018-03-11T19:23:57.001Z,96880.85
2018-03-11T19:26:25.415Z,96887.72
2018-03-11T19:28:53.715Z,96880.62
2018-03-11T19:31:21.995Z,96877.97
2018-03-11T19:33:50.318Z,96872.66
2018-03-11T19:36:18.739Z,96871.41
2018-03-11T19:38:47.064Z,96869.94
2018-03-11T19:41:16.068Z,96870.48
2018-03-11T19:43:44.396Z,96859.92
2018-03-11T19:46:12.740Z,96865.62
2018-03-11T19:48:41.127Z,96856.83
2018-03-11T19:51:09.624Z,96858.80
2018-03-11T19:53:37.871Z,96855.02
2018-03-11T19:56:06.193Z,96846.27
2018-03-11T19:58:34.521Z,96846.27
2018-03-11T20:01:02.807Z,96844.56
2018-03-11T20:03:32.005Z,96844.56
2018-03-11T20:06:00.362Z,96840.25
2018-03-11T20:08:28.592Z,96832.99
2018-03-11T20:10:56.916Z,96832.94
2018-03-11T20:13:25.178Z,96827.83
2018-03-11T20:15:53.460Z,96823.22
2018-03-11T20:18:21.788Z,96830.09
2018-03-11T20:20:50.096Z,96824.36
2018-03-11T20:23:18.377Z,96819.06
2018-03-11T20:25:46.673Z,96822.49
2018-03-11T20:28:14.955Z,96821.84
2018-03-11T20:30:43.324Z,96821.02
2018-03-11T20:33:11.635Z,96820.28
2018-03-11T20:35:40.927Z,96819.35
2018-03-11T20:38:09.277Z,96815.27
2018-03-11T20:40:37.612Z,96814.44
2018-03-11T20:43:06.018Z,96815.58
2018-03-11T20:45:34.432Z,96811.16
2018-03-11T20:48:02.856Z,96805.86
2018-03-11T20:50:31.228Z,96803.70
2018-03-11T20:52:59.548Z,96807.82
2018-03-11T20:55:27.857Z,96804.09
2018-03-11T20:57:56.217Z,96805.22
2018-03-11T21:00:24.510Z,96800.22
2018-03-11T21:02:52.835Z,96804.68
2018-03-11T21:05:21.152Z,96803.16
2018-03-11T21:07:49.572Z,96801.98
2018-03-11T21:10:17.858Z,96800.86
2018-03-11T21:12:46.184Z,96799.91
2018-03-11T21:15:14.521Z,96802.22
2018-03-11T21:17:42.812Z,96800.07
2018-03-11T21:20:11.825Z,96792.62
2018-03-11T21:22:40.137Z,96797.95
2018-03-11T21:25:08.438Z,96797.66
2018-03-11T21:27:36.735Z,96796.69
2018-03-11T21:30:05.401Z,96799.23
2018-03-11T21:32:33.686Z,96804.92
2018-03-11T21:35:02.022Z,96811.30
2018-03-11T21:37:30.378Z,96808.70
2018-03-11T21:39:58.733Z,96804.53
2018-03-11T21:42:27.035Z,96808.21
2018-03-11T21:44:55.315Z,96811.78
2018-03-11T21:47:23.636Z,96807.76
2018-03-11T21:49:51.940Z,96806.24
2018-03-11T21:52:20.217Z,96803.48
2018-03-11T21:54:48.514Z,96803.14
2018-03-11T21:57:16.836Z,96802.70
2018-03-11T21:59:45.170Z,96803.78
2018-03-11T22:02:14.257Z,96804.02
2018-03-11T22:04:42.577Z,96816.33
2018-03-11T22:07:10.873Z,96812.61
2018-03-11T22:09:39.173Z,96807.64
2018-03-11T22:12:07.470Z,96797.20
2018-03-11T22:14:35.763Z,96799.46
2018-03-11T22:17:04.875Z,96793.66
2018-03-11T22:19:33.234Z,96808.92
2018-03-11T22:22:01.498Z,96809.56
2018-03-11T22:24:29.797Z,96804.75
2018-03-11T22:26:58.090Z,96802.64
2018-03-11T22:29:26.422Z,96806.45
2018-03-11T22:31:54.722Z,96807.77
2018-03-11T22:34:23.185Z,96803.08
2018-03-11T22:36:51.491Z,96801.36
2018-03-11T22:39:19.811Z,96798.20
2018-03-11T22:41:48.085Z,96810.58
2018-03-11T22:44:16.392Z,96796.73
2018-03-11T22:46:44.711Z,96790.70
2018-03-11T22:49:13.017Z,96782.81
2018-03-11T22:51:41.369Z,96785.36
2018-03-11T22:54:09.656Z,96783.41
2018-03-11T22:56:37.951Z,96784.42
2018-03-11T22:59:06.238Z,96783.48
2018-03-11T23:01:34.560Z,96782.92
2018-03-11T23:04:02.821Z,96782.96
2018-03-11T23:06:31.124Z,96783.86
2018-03-11T23:08:59.525Z,96782.92
2018-03-11T23:11:27.844Z,96781.81
2018-03-11T23:13:56.128Z,96771.70
2018-03-11T23:16:24.421Z,96772.16
2018-03-11T23:19:04.555Z,96766.70
2018-03-11T23:21:32.872Z,96764.51
2018-03-11T23:24:01.636Z,96770.77
2018-03-11T23:26:29.968Z,96767.23
2018-03-11T23:28:59.079Z,96768.11
2018-03-11T23:31:27.385Z,96759.00
2018-03-11T23:33:55.676Z,96767.95
2018-03-11T23:36:24.898Z,96761.73
2018-03-11T23:38:53.157Z,96765.07
2018-03-11T23:41:21.456Z,96765.76
2018-03-11T23:43:49.735Z,96763.20
2018-03-11T23:46:18.045Z,96767.12
2018-03-11T23:48:46.305Z,96757.30
2018-03-11T23:51:14.682Z,96764.36
2018-03-11T23:53:42.989Z,96770.50
2018-03-11T23:56:11.400Z,96772.36
2018-03-11T23:58:39.748Z,96768.72
